createdAt,value
2023-04-14T00:02:54.858Z,7.92
2023-04-14T00:08:26.701Z,8.03
2023-04-14T00:13:58.220Z,8.01
2023-04-14T00:19:30.174Z,7.89
2023-04-14T00:25:08.321Z,8.02
2023-04-14T00:30:39.818Z,8.02
2023-04-14T00:36:11.743Z,8.1
2023-04-14T00:41:43.284Z,8.08
2023-04-14T00:47:15.001Z,8.22
2023-04-14T00:52:46.895Z,8.11
2023-04-14T00:58:18.390Z,7.97
2023-04-14T01:03:50.478Z,7.81
2023-04-14T01:09:22.075Z,7.83
2023-04-14T01:14:53.697Z,7.83
2023-04-14T01:20:25.924Z,7.76
2023-04-14T01:26:03.633Z,7.66
2023-04-14T01:31:35.309Z,7.6
2023-04-14T01:37:07.036Z,7.52
2023-04-14T01:42:38.560Z,7.48
2023-04-14T01:48:10.348Z,7.33
2023-04-14T01:53:42.116Z,7.15
2023-04-14T01:59:13.952Z,7.24
2023-04-14T02:04:45.455Z,7.14
2023-04-14T02:10:17.166Z,7.08
2023-04-14T02:15:48.887Z,7.02
2023-04-14T02:21:20.584Z,6.89
2023-04-14T02:26:56.741Z,6.98
2023-04-14T02:32:28.467Z,7.02
2023-04-14T02:38:00.551Z,7.01
2023-04-14T02:43:32.117Z,6.98
2023-04-14T02:49:03.662Z,6.94
2023-04-14T02:54:35.553Z,6.91
2023-04-14T03:00:07.221Z,6.89
2023-04-14T03:05:38.794Z,6.94
2023-04-14T03:11:10.757Z,6.9
2023-04-14T03:16:42.233Z,6.84
2023-04-14T03:22:14.007Z,6.65
2023-04-14T03:27:50.096Z,6.55
2023-04-14T03:33:22.071Z,6.47
2023-04-14T03:38:53.506Z,6.39
2023-04-14T03:44:25.452Z,6.33
2023-04-14T03:49:57.001Z,6.28
2023-04-14T03:55:28.957Z,6.23
2023-04-14T04:01:00.597Z,6.12
2023-04-14T04:06:32.138Z,6.07
2023-04-14T04:12:04.147Z,5.93
2023-04-14T04:17:35.838Z,5.9
2023-04-14T04:23:07.352Z,5.88
2023-04-14T04:28:45.850Z,5.87
2023-04-14T04:34:17.306Z,5.83
2023-04-14T04:39:49.481Z,5.79
2023-04-14T04:45:20.603Z,5.75
2023-04-14T04:50:52.351Z,5.72
2023-04-14T04:56:24.083Z,5.7
2023-04-14T05:01:56.760Z,5.73
2023-04-14T05:07:27.573Z,5.7
2023-04-14T05:12:59.258Z,5.72
2023-04-14T05:18:31.641Z,5.74
2023-04-14T05:24:02.683Z,5.82
2023-04-14T05:29:39.039Z,5.81
2023-04-14T05:35:10.733Z,5.9
2023-04-14T05:40:42.849Z,5.99
2023-04-14T05:46:14.043Z,6.16
2023-04-14T05:51:45.731Z,6.22
2023-04-14T05:57:17.742Z,6.38
2023-04-14T06:02:49.431Z,6.65
2023-04-14T06:08:20.894Z,6.84
2023-04-14T06:13:52.627Z,7.02
2023-04-14T06:19:24.343Z,7.18
2023-04-14T06:24:56.048Z,7.34
2023-04-14T06:30:34.470Z,7.56
2023-04-14T06:36:06.150Z,7.58
2023-04-14T06:41:37.874Z,7.56
2023-04-14T06:47:09.389Z,8.07
2023-04-14T06:52:41.049Z,8.27
2023-04-14T06:58:12.813Z,8.16
2023-04-14T07:03:44.859Z,8.67
2023-04-14T07:09:16.378Z,8.4
2023-04-14T07:14:48.150Z,8.6
2023-04-14T07:20:19.953Z,8.89
2023-04-14T07:25:51.372Z,9.28
2023-04-14T07:31:27.804Z,9.21
2023-04-14T07:36:59.276Z,9.47
2023-04-14T07:42:31.213Z,9.8
2023-04-14T07:48:02.745Z,9.89
2023-04-14T07:53:34.984Z,10.07
2023-04-14T07:59:06.099Z,10.09
2023-04-14T08:04:37.870Z,10.37
2023-04-14T08:10:09.580Z,10.54
2023-04-14T08:15:41.318Z,10.75
2023-04-14T08:21:13.409Z,10.76
2023-04-14T08:26:44.830Z,10.96
2023-04-14T08:32:21.960Z,10.83
2023-04-14T08:37:52.858Z,11.44
2023-04-14T08:43:24.331Z,11.25
2023-04-14T08:48:56.086Z,11.78
2023-04-14T08:54:27.938Z,11.45
2023-04-14T08:59:59.516Z,12.05
2023-04-14T09:05:31.442Z,12.35
2023-04-14T09:11:02.951Z,12.66
2023-04-14T09:16:34.671Z,12.53
2023-04-14T09:22:06.397Z,12.43
2023-04-14T09:27:38.247Z,12.05
2023-04-14T09:33:14.462Z,13.31
2023-04-14T09:38:45.945Z,13.54
2023-04-14T09:44:17.950Z,13.14
2023-04-14T09:49:49.564Z,13.28
2023-04-14T09:55:21.122Z,13.53
2023-04-14T10:00:52.875Z,12.75
2023-04-14T10:06:24.778Z,12.72
2023-04-14T10:11:56.842Z,13.26
2023-04-14T10:17:29.893Z,13.09
2023-04-14T10:23:00.018Z,13.86
2023-04-14T10:28:33.103Z,14.26
2023-04-14T10:34:07.986Z,14.45
2023-04-14T10:39:39.389Z,14.06
2023-04-14T10:45:11.149Z,14.36
2023-04-14T10:50:43.005Z,14.46
2023-04-14T10:56:14.598Z,14.54
2023-04-14T11:01:46.292Z,15.12
2023-04-14T11:07:18.005Z,14.75
2023-04-14T11:12:49.886Z,14.54
2023-04-14T11:18:21.724Z,14.73
2023-04-14T11:23:53.335Z,15.28
2023-04-14T11:29:24.837Z,14.69
2023-04-14T11:35:01.049Z,14.81
2023-04-14T11:40:32.753Z,15.04
2023-04-14T11:46:04.507Z,15.63
2023-04-14T11:51:36.250Z,15.46
2023-04-14T11:57:08.195Z,14.85
2023-04-14T12:02:39.754Z,14.92
2023-04-14T12:08:12.080Z,15.47
2023-04-14T12:13:43.098Z,15.87
2023-04-14T12:19:14.839Z,15.79
2023-04-14T12:24:46.739Z,16.12
2023-04-14T12:30:18.362Z,16.21
2023-04-14T12:35:54.422Z,16.27
2023-04-14T12:41:26.350Z,16.06
2023-04-14T12:46:58.100Z,15.98
2023-04-14T12:52:29.628Z,16.51
2023-04-14T12:58:02.436Z,16.15
2023-04-14T13:03:33.332Z,15.94
2023-04-14T13:09:05.067Z,16.21
2023-04-14T13:14:36.981Z,16.32
2023-04-14T13:20:08.208Z,16.55
2023-04-14T13:25:39.952Z,16.51
2023-04-14T13:31:11.840Z,16.5
2023-04-14T13:36:47.803Z,16.47
2023-04-14T13:42:19.557Z,16.11
2023-04-14T13:47:51.604Z,16.42
2023-04-14T13:53:23.044Z,16.39
2023-04-14T13:58:54.795Z,16.01
2023-04-14T14:04:26.493Z,16.6
2023-04-14T14:09:58.130Z,16.49
2023-04-14T14:15:29.930Z,16.25
2023-04-14T14:21:02.274Z,16.61
2023-04-14T14:26:33.361Z,16.42
2023-04-14T14:32:05.059Z,16.52
2023-04-14T14:37:41.207Z,16.07
2023-04-14T14:43:12.895Z,16.4
2023-04-14T14:48:44.637Z,16.47
2023-04-14T14:54:16.432Z,15.97
2023-04-14T14:59:48.300Z,16.22
2023-04-14T15:05:19.982Z,16.39
2023-04-14T15:10:51.507Z,16.27
2023-04-14T15:16:23.286Z,15.95
2023-04-14T15:21:54.977Z,16.67
2023-04-14T15:27:26.940Z,16.27
2023-04-14T15:32:58.795Z,16.34
2023-04-14T15:38:34.884Z,16.64
2023-04-14T15:44:06.314Z,16.15
2023-04-14T15:49:38.041Z,16.54
2023-04-14T15:55:10.001Z,16.37
2023-04-14T16:00:41.527Z,16.48
2023-04-14T16:06:13.597Z,16.61
2023-04-14T16:11:44.919Z,16.76
2023-04-14T16:17:16.965Z,16.48
2023-04-14T16:22:48.387Z,16.06
2023-04-14T16:28:20.599Z,16.03
2023-04-14T16:33:52.046Z,16.36
2023-04-14T16:39:29.082Z,15.86
2023-04-14T16:44:59.723Z,15.93
2023-04-14T16:50:31.515Z,15.75
2023-04-14T16:56:03.123Z,15.83
2023-04-14T17:01:35.078Z,15.8
2023-04-14T17:07:06.555Z,15.67
2023-04-14T17:12:38.282Z,15.42
2023-04-14T17:18:10.928Z,15.2
2023-04-14T17:23:42.008Z,14.96
2023-04-14T17:29:13.398Z,14.83
2023-04-14T17:34:45.229Z,14.62
2023-04-14T17:40:23.314Z,14.38
2023-04-14T17:45:55.256Z,14.13
2023-04-14T17:51:26.817Z,13.85
2023-04-14T17:56:58.533Z,13.64
2023-04-14T18:02:31.068Z,13.4
2023-04-14T18:08:01.991Z,13.14
2023-04-14T18:13:33.947Z,12.95
2023-04-14T18:19:05.436Z,12.72
2023-04-14T18:30:08.869Z,12.37
2023-04-14T18:35:40.616Z,12.2
2023-04-14T18:41:16.933Z,12.0
2023-04-14T18:46:48.962Z,11.82
2023-04-14T18:52:20.420Z,11.71
2023-04-14T18:57:52.140Z,11.6
2023-04-14T19:03:23.865Z,11.46
2023-04-14T19:08:55.521Z,11.45
2023-04-14T19:14:27.044Z,11.46
2023-04-14T19:19:58.778Z,11.43
2023-04-14T19:25:30.490Z,11.44
2023-04-14T19:31:02.259Z,11.38
2023-04-14T19:36:34.186Z,11.28
2023-04-14T19:42:12.311Z,11.19
2023-04-14T19:47:44.540Z,11.11
2023-04-14T19:53:15.596Z,11.06
2023-04-14T19:58:47.479Z,10.99
2023-04-14T20:04:19.372Z,10.91
2023-04-14T20:09:51.292Z,10.84
2023-04-14T20:15:22.489Z,10.79
2023-04-14T20:20:54.374Z,10.66
2023-04-14T20:26:26.161Z,10.64
2023-04-14T20:31:57.705Z,10.6
2023-04-14T20:37:29.561Z,10.58
2023-04-14T20:43:05.783Z,10.48
2023-04-14T20:48:37.263Z,10.45
2023-04-14T20:54:09.712Z,10.4
2023-04-14T20:59:40.697Z,10.34
2023-04-14T21:05:12.410Z,10.26
2023-04-14T21:11:02.065Z,10.22
2023-04-14T21:16:16.006Z,10.16
2023-04-14T21:21:47.570Z,9.99
2023-04-14T21:27:19.519Z,9.9
2023-04-14T21:32:51.051Z,9.84
2023-04-14T21:38:23.146Z,9.7
2023-04-14T21:44:00.878Z,9.62
2023-04-14T21:49:32.798Z,9.48
2023-04-14T21:55:04.372Z,9.42
2023-04-14T22:00:36.241Z,9.31
2023-04-14T22:06:07.768Z,9.21
2023-04-14T22:11:40.321Z,9.21
2023-04-14T22:17:11.424Z,9.14
2023-04-14T22:22:43.008Z,9.08
2023-04-14T22:28:15.141Z,9.01
2023-04-14T22:33:46.575Z,8.94
2023-04-14T22:39:18.320Z,8.83
2023-04-14T22:44:54.306Z,8.73
2023-04-14T22:50:26.455Z,8.64
2023-04-14T22:55:57.708Z,8.6
2023-04-14T23:01:29.470Z,8.53
2023-04-14T23:07:01.307Z,8.37
2023-04-14T23:12:33.195Z,8.31
2023-04-14T23:18:04.779Z,8.27
2023-04-14T23:23:36.314Z,8.16
2023-04-14T23:29:08.542Z,8.15
2023-04-14T23:34:39.890Z,8.02
2023-04-14T23:40:11.762Z,7.99
2023-04-14T23:45:47.773Z,7.84
2023-04-14T23:51:19.803Z,7.81
2023-04-14T23:56:50.993Z,7.73
